Terminal Aerodrome Forecast
Issued by NWS

Home | Current Version | Previous Version | Text Only | Print | Product List | Glossary On
Versions: 1 2 3 4 5 6 7 8 9 10 11 12 13 14 15 16 17
000
FTUS43 KSGF 142320
TAFBBG
TAF
KBBG 142320Z 1500/1524 33005KT P6SM BKN090
     FM151100 VRB03KT P6SM SCT080
     FM151800 29008KT P6SM SKC=

USA.gov is the U.S. government's official web portal to all federal, state and local government web resources and services.